Bay Wolf — WDF4104 — position and weather

sailwx.info

Track history (hours):
 
Tides and Currents Weather Stations Pressure Air Temp Water Temp Dewpoint Dewpoint Depression Visibility Wind Speed Wind Dir Waves Ship Positions

Bay Wolf

Owner: Captain Kirk's San francisco Sailing, LLC, Palo Alto, CA. More information available from US FCC via Universal Licensing System and Coast Guard Vessel Documentation Center.

Last reported at 2018-Jan-07 01:37 UTC. Time now 2018-Jan-18 12:21 UTC.
Position N 37°52' W 122°30'.
Warning: this ship's position is 11 days out of date.

Length 16 m.

Type: Sailing vessel. MMSI: 367448040.

Date/timePositionNaut miles runAvg speedWind from/ knotsBaromVisibWave heightAir tempDewpointWater temp
2018-Jan-07 01:37N 37°52' W 122°30'0 3.6
2018-Jan-07 01:30N 37°52' W 122°29'3 2.8
2018-Jan-07 00:30N 37°49' W 122°29'1 2.2
2018-Jan-07 00:00N 37°48' W 122°30'2 3.5
2018-Jan-06 23:30N 37°50' W 122°28'1 2.8
2018-Jan-06 23:00N 37°51' W 122°28'1 2.8
2018-Jan-06 22:30N 37°52' W 122°30'0 0.0
2018-Jan-06 22:00N 37°52' W 122°30'2 4.0
2018-Jan-06 21:30N 37°51' W 122°27'3 5.4
2018-Jan-06 21:00N 37°49' W 122°25'2 4.7
2018-Jan-06 20:30N 37°49' W 122°28'1 2.2
2018-Jan-06 20:00N 37°49' W 122°29'2 4.5
2018-Jan-06 19:29N 37°52' W 122°29'1 2.0
2018-Jan-06 19:00N 37°52' W 122°30'  
Track history (hours):
 
Tides and Currents Weather Stations Pressure Air Temp Water Temp Dewpoint Dewpoint Depression Visibility Wind Speed Wind Dir Waves Ship Positions

Bay Wolf

Owner: Captain Kirk's San francisco Sailing, LLC, Palo Alto, CA. More information available from US FCC via Universal Licensing System and Coast Guard Vessel Documentation Center.

Last reported at 2018-Jan-07 01:37 UTC. Time now 2018-Jan-18 12:21 UTC.
Position N 37°52' W 122°30'.
Warning: this ship's position is 11 days out of date.

Length 16 m.

Type: Sailing vessel. MMSI: 367448040.

Date/timePositionNaut miles runAvg speedWind from/ knotsBaromVisibWave heightAir tempDewpointWater temp
2018-Jan-07 01:37N 37°52' W 122°30'0 3.6
2018-Jan-07 01:30N 37°52' W 122°29'3 2.8
2018-Jan-07 00:30N 37°49' W 122°29'1 2.2
2018-Jan-07 00:00N 37°48' W 122°30'2 3.5
2018-Jan-06 23:30N 37°50' W 122°28'1 2.8
2018-Jan-06 23:00N 37°51' W 122°28'1 2.8
2018-Jan-06 22:30N 37°52' W 122°30'0 0.0
2018-Jan-06 22:00N 37°52' W 122°30'2 4.0
2018-Jan-06 21:30N 37°51' W 122°27'3 5.4
2018-Jan-06 21:00N 37°49' W 122°25'2 4.7
2018-Jan-06 20:30N 37°49' W 122°28'1 2.2
2018-Jan-06 20:00N 37°49' W 122°29'2 4.5
2018-Jan-06 19:29N 37°52' W 122°29'1 2.0
2018-Jan-06 19:00N 37°52' W 122°30'  

Dump ship's entire track history